sensor_id;sensor_type;location;lat;lon;timestamp;P1;durP1;ratioP1;P2;durP2;ratioP2
12135;SDS011;6131;56.420;15.548;2023-05-10T00:00:08;5.17;;;3.00;;
12135;SDS011;6131;56.420;15.548;2023-05-10T00:02:34;5.73;;;3.10;;
12135;SDS011;6131;56.420;15.548;2023-05-10T00:05:01;4.53;;;2.90;;
12135;SDS011;6131;56.420;15.548;2023-05-10T00:07:27;5.83;;;2.80;;
12135;SDS011;6131;56.420;15.548;2023-05-10T00:09:53;5.53;;;2.90;;
12135;SDS011;6131;56.420;15.548;2023-05-10T00:12:19;5.40;;;2.70;;
12135;SDS011;6131;56.420;15.548;2023-05-10T00:14:45;7.40;;;2.87;;
12135;SDS011;6131;56.420;15.548;2023-05-10T00:17:11;6.37;;;2.90;;
12135;SDS011;6131;56.420;15.548;2023-05-10T00:19:37;4.17;;;2.93;;
12135;SDS011;6131;56.420;15.548;2023-05-10T00:22:03;5.87;;;3.20;;
12135;SDS011;6131;56.420;15.548;2023-05-10T00:24:29;4.23;;;3.07;;
12135;SDS011;6131;56.420;15.548;2023-05-10T00:26:55;4.50;;;2.93;;
12135;SDS011;6131;56.420;15.548;2023-05-10T00:29:21;3.90;;;3.10;;
12135;SDS011;6131;56.420;15.548;2023-05-10T00:31:47;4.63;;;3.13;;
12135;SDS011;6131;56.420;15.548;2023-05-10T00:34:13;4.10;;;2.43;;
12135;SDS011;6131;56.420;15.548;2023-05-10T00:36:39;4.20;;;2.73;;
12135;SDS011;6131;56.420;15.548;2023-05-10T00:39:05;7.77;;;2.80;;
12135;SDS011;6131;56.420;15.548;2023-05-10T00:41:31;5.30;;;3.30;;
12135;SDS011;6131;56.420;15.548;2023-05-10T00:43:57;4.37;;;2.97;;
12135;SDS011;6131;56.420;15.548;2023-05-10T00:46:23;4.53;;;2.87;;
12135;SDS011;6131;56.420;15.548;2023-05-10T00:48:50;4.27;;;2.70;;
12135;SDS011;6131;56.420;15.548;2023-05-10T00:51:16;7.03;;;2.83;;
12135;SDS011;6131;56.420;15.548;2023-05-10T00:53:43;3.83;;;2.90;;
12135;SDS011;6131;56.420;15.548;2023-05-10T00:56:09;4.03;;;2.83;;
12135;SDS011;6131;56.420;15.548;2023-05-10T00:58:35;3.20;;;2.57;;
12135;SDS011;6131;56.420;15.548;2023-05-10T01:01:01;3.77;;;3.00;;
12135;SDS011;6131;56.420;15.548;2023-05-10T01:03:28;4.27;;;2.93;;
12135;SDS011;6131;56.420;15.548;2023-05-10T01:05:54;4.60;;;2.80;;
12135;SDS011;6131;56.420;15.548;2023-05-10T01:08:20;5.50;;;3.17;;
12135;SDS011;6131;56.420;15.548;2023-05-10T01:10:47;7.33;;;3.27;;
12135;SDS011;6131;56.420;15.548;2023-05-10T01:13:15;6.03;;;3.10;;
12135;SDS011;6131;56.420;15.548;2023-05-10T01:15:44;8.43;;;3.30;;
12135;SDS011;6131;56.420;15.548;2023-05-10T01:18:11;7.17;;;3.30;;
12135;SDS011;6131;56.420;15.548;2023-05-10T01:20:40;4.53;;;3.20;;
12135;SDS011;6131;56.420;15.548;2023-05-10T01:33:28;3.17;;;2.63;;
12135;SDS011;6131;56.420;15.548;2023-05-10T01:36:19;6.30;;;3.10;;
12135;SDS011;6131;56.420;15.548;2023-05-10T01:38:45;4.83;;;3.03;;
12135;SDS011;6131;56.420;15.548;2023-05-10T01:41:36;6.13;;;2.87;;
12135;SDS011;6131;56.420;15.548;2023-05-10T01:44:16;4.83;;;3.20;;
12135;SDS011;6131;56.420;15.548;2023-05-10T01:46:43;4.57;;;2.90;;
12135;SDS011;6131;56.420;15.548;2023-05-10T01:49:20;6.97;;;2.97;;
12135;SDS011;6131;56.420;15.548;2023-05-10T01:51:47;6.13;;;2.93;;
12135;SDS011;6131;56.420;15.548;2023-05-10T01:54:16;4.67;;;2.77;;
12135;SDS011;6131;56.420;15.548;2023-05-10T01:56:43;5.07;;;3.20;;
12135;SDS011;6131;56.420;15.548;2023-05-10T01:59:11;5.03;;;3.00;;
12135;SDS011;6131;56.420;15.548;2023-05-10T02:01:39;3.73;;;3.03;;
12135;SDS011;6131;56.420;15.548;2023-05-10T02:04:08;4.47;;;3.00;;
12135;SDS011;6131;56.420;15.548;2023-05-10T02:06:35;7.90;;;3.60;;
12135;SDS011;6131;56.420;15.548;2023-05-10T02:09:01;5.80;;;3.27;;
12135;SDS011;6131;56.420;15.548;2023-05-10T02:11:28;5.63;;;3.20;;
12135;SDS011;6131;56.420;15.548;2023-05-10T02:13:55;5.17;;;3.33;;
12135;SDS011;6131;56.420;15.548;2023-05-10T02:16:23;3.90;;;3.13;;
12135;SDS011;6131;56.420;15.548;2023-05-10T02:18:49;4.57;;;3.03;;
12135;SDS011;6131;56.420;15.548;2023-05-10T02:21:16;6.30;;;3.40;;
12135;SDS011;6131;56.420;15.548;2023-05-10T02:23:43;5.30;;;3.40;;
12135;SDS011;6131;56.420;15.548;2023-05-10T02:26:10;3.80;;;3.13;;
12135;SDS011;6131;56.420;15.548;2023-05-10T02:28:37;4.40;;;2.90;;
12135;SDS011;6131;56.420;15.548;2023-05-10T02:31:03;4.90;;;3.47;;
12135;SDS011;6131;56.420;15.548;2023-05-10T02:33:30;4.77;;;3.23;;
12135;SDS011;6131;56.420;15.548;2023-05-10T02:35:57;4.57;;;3.27;;
12135;SDS011;6131;56.420;15.548;2023-05-10T02:38:23;5.90;;;3.30;;
12135;SDS011;6131;56.420;15.548;2023-05-10T02:40:50;5.40;;;3.47;;
12135;SDS011;6131;56.420;15.548;2023-05-10T02:43:16;4.67;;;3.30;;
12135;SDS011;6131;56.420;15.548;2023-05-10T02:45:43;4.63;;;3.50;;
12135;SDS011;6131;56.420;15.548;2023-05-10T02:48:09;3.70;;;3.20;;
12135;SDS011;6131;56.420;15.548;2023-05-10T02:50:35;4.13;;;2.80;;
12135;SDS011;6131;56.420;15.548;2023-05-10T02:53:04;4.50;;;3.43;;
12135;SDS011;6131;56.420;15.548;2023-05-10T02:55:32;6.83;;;4.03;;
12135;SDS011;6131;56.420;15.548;2023-05-10T02:58:01;4.37;;;3.17;;
12135;SDS011;6131;56.420;15.548;2023-05-10T03:00:27;5.07;;;3.40;;
12135;SDS011;6131;56.420;15.548;2023-05-10T03:02:53;4.07;;;2.93;;
12135;SDS011;6131;56.420;15.548;2023-05-10T03:05:20;5.87;;;3.43;;
12135;SDS011;6131;56.420;15.548;2023-05-10T03:07:46;6.20;;;3.83;;
12135;SDS011;6131;56.420;15.548;2023-05-10T03:10:12;5.27;;;3.30;;
12135;SDS011;6131;56.420;15.548;2023-05-10T03:17:55;6.73;;;3.77;;
12135;SDS011;6131;56.420;15.548;2023-05-10T03:20:26;6.17;;;3.93;;
12135;SDS011;6131;56.420;15.548;2023-05-10T03:23:00;5.60;;;3.70;;
12135;SDS011;6131;56.420;15.548;2023-05-10T03:25:28;5.27;;;3.03;;
12135;SDS011;6131;56.420;15.548;2023-05-10T03:27:55;5.40;;;3.20;;
12135;SDS011;6131;56.420;15.548;2023-05-10T03:30:22;7.63;;;4.00;;
12135;SDS011;6131;56.420;15.548;2023-05-10T03:32:48;4.50;;;3.63;;
12135;SDS011;6131;56.420;15.548;2023-05-10T03:35:14;6.27;;;3.57;;
12135;SDS011;6131;56.420;15.548;2023-05-10T03:37:40;8.77;;;3.93;;
12135;SDS011;6131;56.420;15.548;2023-05-10T03:40:06;7.47;;;3.80;;
12135;SDS011;6131;56.420;15.548;2023-05-10T03:42:32;4.10;;;3.40;;
12135;SDS011;6131;56.420;15.548;2023-05-10T03:44:58;6.23;;;3.30;;
12135;SDS011;6131;56.420;15.548;2023-05-10T03:47:24;6.40;;;3.30;;
12135;SDS011;6131;56.420;15.548;2023-05-10T03:49:50;8.47;;;3.80;;
12135;SDS011;6131;56.420;15.548;2023-05-10T03:52:16;4.40;;;3.30;;
12135;SDS011;6131;56.420;15.548;2023-05-10T03:54:43;4.77;;;3.47;;
12135;SDS011;6131;56.420;15.548;2023-05-10T03:57:09;5.83;;;3.70;;
12135;SDS011;6131;56.420;15.548;2023-05-10T03:59:35;9.30;;;3.70;;
12135;SDS011;6131;56.420;15.548;2023-05-10T04:02:01;10.50;;;3.90;;
12135;SDS011;6131;56.420;15.548;2023-05-10T04:04:27;6.30;;;3.77;;
12135;SDS011;6131;56.420;15.548;2023-05-10T04:06:53;7.20;;;3.80;;
12135;SDS011;6131;56.420;15.548;2023-05-10T04:09:19;6.43;;;3.70;;
12135;SDS011;6131;56.420;15.548;2023-05-10T04:11:45;4.87;;;3.50;;
12135;SDS011;6131;56.420;15.548;2023-05-10T04:14:11;6.07;;;3.57;;
12135;SDS011;6131;56.420;15.548;2023-05-10T04:16:37;5.57;;;3.80;;
12135;SDS011;6131;56.420;15.548;2023-05-10T04:19:03;6.13;;;4.03;;
12135;SDS011;6131;56.420;15.548;2023-05-10T04:21:29;6.00;;;4.13;;
12135;SDS011;6131;56.420;15.548;2023-05-10T04:23:55;7.03;;;3.63;;
12135;SDS011;6131;56.420;15.548;2023-05-10T04:26:21;8.73;;;3.70;;
12135;SDS011;6131;56.420;15.548;2023-05-10T04:28:47;6.63;;;4.13;;
12135;SDS011;6131;56.420;15.548;2023-05-10T04:31:13;5.40;;;3.50;;
12135;SDS011;6131;56.420;15.548;2023-05-10T04:33:39;5.57;;;3.50;;
12135;SDS011;6131;56.420;15.548;2023-05-10T04:36:05;6.70;;;3.13;;
12135;SDS011;6131;56.420;15.548;2023-05-10T04:38:32;6.00;;;3.37;;
12135;SDS011;6131;56.420;15.548;2023-05-10T04:41:05;5.97;;;3.13;;
12135;SDS011;6131;56.420;15.548;2023-05-10T04:43:31;4.17;;;3.13;;
12135;SDS011;6131;56.420;15.548;2023-05-10T04:45:57;4.43;;;2.90;;
12135;SDS011;6131;56.420;15.548;2023-05-10T04:48:23;4.90;;;3.40;;
12135;SDS011;6131;56.420;15.548;2023-05-10T04:50:49;4.00;;;2.73;;
12135;SDS011;6131;56.420;15.548;2023-05-10T04:53:15;7.00;;;3.23;;
12135;SDS011;6131;56.420;15.548;2023-05-10T04:55:41;4.13;;;2.87;;
12135;SDS011;6131;56.420;15.548;2023-05-10T04:58:07;5.23;;;3.20;;
12135;SDS011;6131;56.420;15.548;2023-05-10T05:00:33;3.87;;;3.00;;
12135;SDS011;6131;56.420;15.548;2023-05-10T05:02:59;4.50;;;2.77;;
12135;SDS011;6131;56.420;15.548;2023-05-10T05:05:25;4.73;;;2.60;;
12135;SDS011;6131;56.420;15.548;2023-05-10T05:07:51;5.53;;;2.50;;
12135;SDS011;6131;56.420;15.548;2023-05-10T05:10:18;3.63;;;2.77;;
12135;SDS011;6131;56.420;15.548;2023-05-10T05:12:44;5.80;;;2.80;;
12135;SDS011;6131;56.420;15.548;2023-05-10T05:15:10;5.57;;;3.00;;
12135;SDS011;6131;56.420;15.548;2023-05-10T05:17:37;5.53;;;3.23;;
12135;SDS011;6131;56.420;15.548;2023-05-10T05:20:03;3.70;;;2.83;;
12135;SDS011;6131;56.420;15.548;2023-05-10T05:22:29;6.03;;;2.63;;
12135;SDS011;6131;56.420;15.548;2023-05-10T05:24:55;3.87;;;3.00;;
12135;SDS011;6131;56.420;15.548;2023-05-10T05:27:23;5.00;;;3.10;;
12135;SDS011;6131;56.420;15.548;2023-05-10T05:29:52;3.33;;;2.73;;
12135;SDS011;6131;56.420;15.548;2023-05-10T05:32:18;4.70;;;2.30;;
12135;SDS011;6131;56.420;15.548;2023-05-10T05:34:45;5.40;;;2.80;;
12135;SDS011;6131;56.420;15.548;2023-05-10T05:37:14;3.10;;;2.50;;
12135;SDS011;6131;56.420;15.548;2023-05-10T05:39:41;2.80;;;2.43;;
12135;SDS011;6131;56.420;15.548;2023-05-10T05:42:07;4.63;;;2.50;;
12135;SDS011;6131;56.420;15.548;2023-05-10T05:44:33;2.83;;;2.20;;
12135;SDS011;6131;56.420;15.548;2023-05-10T05:46:59;4.60;;;2.70;;
12135;SDS011;6131;56.420;15.548;2023-05-10T05:49:25;5.73;;;2.87;;
12135;SDS011;6131;56.420;15.548;2023-05-10T05:51:51;4.80;;;2.40;;
12135;SDS011;6131;56.420;15.548;2023-05-10T05:54:17;3.20;;;2.30;;
12135;SDS011;6131;56.420;15.548;2023-05-10T05:56:43;5.23;;;2.67;;
12135;SDS011;6131;56.420;15.548;2023-05-10T05:59:10;5.53;;;2.43;;
12135;SDS011;6131;56.420;15.548;2023-05-10T06:01:36;3.40;;;2.43;;
12135;SDS011;6131;56.420;15.548;2023-05-10T06:04:02;6.70;;;2.80;;
12135;SDS011;6131;56.420;15.548;2023-05-10T06:06:28;6.57;;;2.80;;
12135;SDS011;6131;56.420;15.548;2023-05-10T06:08:54;2.73;;;2.27;;
12135;SDS011;6131;56.420;15.548;2023-05-10T06:11:20;2.80;;;2.47;;
12135;SDS011;6131;56.420;15.548;2023-05-10T06:13:47;3.70;;;2.37;;
12135;SDS011;6131;56.420;15.548;2023-05-10T06:16:13;4.40;;;2.57;;
12135;SDS011;6131;56.420;15.548;2023-05-10T06:18:39;4.17;;;2.60;;
12135;SDS011;6131;56.420;15.548;2023-05-10T06:21:05;3.07;;;2.23;;
12135;SDS011;6131;56.420;15.548;2023-05-10T06:23:31;4.63;;;2.63;;
12135;SDS011;6131;56.420;15.548;2023-05-10T06:25:57;4.30;;;2.50;;
12135;SDS011;6131;56.420;15.548;2023-05-10T06:28:23;3.40;;;2.10;;
12135;SDS011;6131;56.420;15.548;2023-05-10T06:30:49;5.60;;;2.13;;
12135;SDS011;6131;56.420;15.548;2023-05-10T06:33:15;2.60;;;2.00;;
12135;SDS011;6131;56.420;15.548;2023-05-10T06:35:41;3.80;;;2.30;;
12135;SDS011;6131;56.420;15.548;2023-05-10T06:38:07;3.70;;;2.20;;
12135;SDS011;6131;56.420;15.548;2023-05-10T06:40:33;2.57;;;1.87;;
12135;SDS011;6131;56.420;15.548;2023-05-10T06:42:59;3.43;;;2.13;;
12135;SDS011;6131;56.420;15.548;2023-05-10T06:45:27;5.53;;;2.10;;
12135;SDS011;6131;56.420;15.548;2023-05-10T06:47:53;3.70;;;2.20;;
12135;SDS011;6131;56.420;15.548;2023-05-10T06:50:19;3.50;;;2.20;;
12135;SDS011;6131;56.420;15.548;2023-05-10T06:52:46;2.87;;;1.80;;
12135;SDS011;6131;56.420;15.548;2023-05-10T06:55:12;3.13;;;2.00;;
12135;SDS011;6131;56.420;15.548;2023-05-10T06:57:38;3.03;;;1.70;;
12135;SDS011;6131;56.420;15.548;2023-05-10T07:00:05;4.07;;;2.00;;
12135;SDS011;6131;56.420;15.548;2023-05-10T07:02:31;2.80;;;1.80;;
12135;SDS011;6131;56.420;15.548;2023-05-10T07:04:57;3.03;;;2.10;;
12135;SDS011;6131;56.420;15.548;2023-05-10T07:07:23;7.43;;;2.00;;
12135;SDS011;6131;56.420;15.548;2023-05-10T07:09:49;4.43;;;1.80;;
12135;SDS011;6131;56.420;15.548;2023-05-10T07:12:16;5.90;;;2.03;;
12135;SDS011;6131;56.420;15.548;2023-05-10T07:14:42;2.93;;;1.87;;
12135;SDS011;6131;56.420;15.548;2023-05-10T07:17:08;2.93;;;1.90;;
12135;SDS011;6131;56.420;15.548;2023-05-10T07:19:34;5.10;;;1.63;;
12135;SDS011;6131;56.420;15.548;2023-05-10T07:22:01;6.03;;;2.03;;
12135;SDS011;6131;56.420;15.548;2023-05-10T07:24:27;3.97;;;1.97;;
12135;SDS011;6131;56.420;15.548;2023-05-10T07:26:53;3.23;;;1.90;;
12135;SDS011;6131;56.420;15.548;2023-05-10T07:29:19;3.37;;;2.00;;
12135;SDS011;6131;56.420;15.548;2023-05-10T07:31:45;5.93;;;1.70;;
12135;SDS011;6131;56.420;15.548;2023-05-10T07:34:11;2.60;;;1.80;;
12135;SDS011;6131;56.420;15.548;2023-05-10T07:36:37;2.20;;;1.50;;
12135;SDS011;6131;56.420;15.548;2023-05-10T07:39:03;3.27;;;2.00;;
12135;SDS011;6131;56.420;15.548;2023-05-10T07:41:29;4.53;;;2.00;;
12135;SDS011;6131;56.420;15.548;2023-05-10T07:43:55;2.40;;;1.83;;
12135;SDS011;6131;56.420;15.548;2023-05-10T07:46:21;4.47;;;1.70;;
12135;SDS011;6131;56.420;15.548;2023-05-10T07:48:47;3.27;;;1.90;;
12135;SDS011;6131;56.420;15.548;2023-05-10T07:51:13;5.30;;;1.67;;
12135;SDS011;6131;56.420;15.548;2023-05-10T07:53:39;4.60;;;1.67;;
12135;SDS011;6131;56.420;15.548;2023-05-10T07:58:52;4.43;;;1.80;;
12135;SDS011;6131;56.420;15.548;2023-05-10T08:01:18;2.40;;;1.73;;
12135;SDS011;6131;56.420;15.548;2023-05-10T08:03:44;2.27;;;1.80;;
12135;SDS011;6131;56.420;15.548;2023-05-10T08:06:10;4.40;;;2.10;;
12135;SDS011;6131;56.420;15.548;2023-05-10T08:08:36;3.10;;;2.00;;
12135;SDS011;6131;56.420;15.548;2023-05-10T08:11:02;3.80;;;1.80;;
12135;SDS011;6131;56.420;15.548;2023-05-10T08:13:28;2.27;;;1.63;;
12135;SDS011;6131;56.420;15.548;2023-05-10T08:15:54;2.93;;;1.83;;
12135;SDS011;6131;56.420;15.548;2023-05-10T08:18:20;2.10;;;1.70;;
12135;SDS011;6131;56.420;15.548;2023-05-10T08:20:46;2.47;;;1.60;;
12135;SDS011;6131;56.420;15.548;2023-05-10T08:23:13;4.13;;;1.77;;
12135;SDS011;6131;56.420;15.548;2023-05-10T08:25:39;2.67;;;1.80;;
12135;SDS011;6131;56.420;15.548;2023-05-10T08:28:05;2.70;;;1.90;;
12135;SDS011;6131;56.420;15.548;2023-05-10T08:30:31;5.23;;;1.87;;
12135;SDS011;6131;56.420;15.548;2023-05-10T08:32:57;10.57;;;2.03;;
12135;SDS011;6131;56.420;15.548;2023-05-10T08:35:23;5.20;;;2.00;;
12135;SDS011;6131;56.420;15.548;2023-05-10T08:37:50;2.60;;;1.60;;
12135;SDS011;6131;56.420;15.548;2023-05-10T08:40:16;6.40;;;2.00;;
12135;SDS011;6131;56.420;15.548;2023-05-10T08:43:19;2.63;;;1.53;;
12135;SDS011;6131;56.420;15.548;2023-05-10T08:45:41;5.07;;;1.77;;
12135;SDS011;6131;56.420;15.548;2023-05-10T08:48:07;3.83;;;1.90;;
12135;SDS011;6131;56.420;15.548;2023-05-10T08:50:38;2.00;;;1.60;;
12135;SDS011;6131;56.420;15.548;2023-05-10T08:53:05;18.23;;;2.73;;
12135;SDS011;6131;56.420;15.548;2023-05-10T08:55:32;2.43;;;1.87;;
12135;SDS011;6131;56.420;15.548;2023-05-10T08:57:59;3.87;;;2.00;;
12135;SDS011;6131;56.420;15.548;2023-05-10T09:00:26;3.10;;;1.77;;
12135;SDS011;6131;56.420;15.548;2023-05-10T09:02:53;3.40;;;1.90;;
12135;SDS011;6131;56.420;15.548;2023-05-10T09:05:20;2.23;;;1.50;;
12135;SDS011;6131;56.420;15.548;2023-05-10T09:07:46;3.73;;;1.80;;
12135;SDS011;6131;56.420;15.548;2023-05-10T09:10:12;4.03;;;1.63;;
12135;SDS011;6131;56.420;15.548;2023-05-10T09:12:38;2.07;;;1.60;;
12135;SDS011;6131;56.420;15.548;2023-05-10T09:15:05;3.33;;;1.57;;
12135;SDS011;6131;56.420;15.548;2023-05-10T09:17:33;9.00;;;2.00;;
12135;SDS011;6131;56.420;15.548;2023-05-10T09:20:02;4.03;;;1.80;;
12135;SDS011;6131;56.420;15.548;2023-05-10T09:22:32;2.20;;;1.53;;
12135;SDS011;6131;56.420;15.548;2023-05-10T09:25:11;4.60;;;1.60;;
12135;SDS011;6131;56.420;15.548;2023-05-10T09:27:38;2.30;;;1.70;;
12135;SDS011;6131;56.420;15.548;2023-05-10T09:30:04;7.93;;;2.30;;
12135;SDS011;6131;56.420;15.548;2023-05-10T09:32:38;3.27;;;1.80;;
12135;SDS011;6131;56.420;15.548;2023-05-10T09:35:10;4.33;;;1.73;;
12135;SDS011;6131;56.420;15.548;2023-05-10T09:37:38;10.17;;;2.03;;
12135;SDS011;6131;56.420;15.548;2023-05-10T09:40:06;2.23;;;2.03;;
12135;SDS011;6131;56.420;15.548;2023-05-10T09:42:33;4.90;;;1.83;;
12135;SDS011;6131;56.420;15.548;2023-05-10T09:45:03;4.03;;;1.93;;
12135;SDS011;6131;56.420;15.548;2023-05-10T09:47:31;9.47;;;2.37;;
12135;SDS011;6131;56.420;15.548;2023-05-10T09:49:57;3.63;;;1.90;;
12135;SDS011;6131;56.420;15.548;2023-05-10T09:52:28;3.07;;;1.87;;
12135;SDS011;6131;56.420;15.548;2023-05-10T09:54:54;3.63;;;1.80;;
12135;SDS011;6131;56.420;15.548;2023-05-10T09:57:21;4.93;;;1.73;;
12135;SDS011;6131;56.420;15.548;2023-05-10T09:59:47;4.20;;;1.87;;
12135;SDS011;6131;56.420;15.548;2023-05-10T10:02:14;2.97;;;1.60;;
12135;SDS011;6131;56.420;15.548;2023-05-10T10:04:41;3.87;;;1.57;;
12135;SDS011;6131;56.420;15.548;2023-05-10T10:07:07;2.90;;;1.60;;
12135;SDS011;6131;56.420;15.548;2023-05-10T10:09:33;2.37;;;1.67;;
12135;SDS011;6131;56.420;15.548;2023-05-10T10:12:00;5.13;;;1.60;;
12135;SDS011;6131;56.420;15.548;2023-05-10T10:14:26;6.63;;;2.20;;
12135;SDS011;6131;56.420;15.548;2023-05-10T10:16:53;6.20;;;1.90;;
12135;SDS011;6131;56.420;15.548;2023-05-10T10:19:19;5.77;;;2.03;;
12135;SDS011;6131;56.420;15.548;2023-05-10T10:21:46;3.23;;;1.70;;
12135;SDS011;6131;56.420;15.548;2023-05-10T10:24:12;1.70;;;1.50;;
12135;SDS011;6131;56.420;15.548;2023-05-10T10:26:38;2.83;;;1.73;;
12135;SDS011;6131;56.420;15.548;2023-05-10T10:31:44;4.70;;;1.70;;
12135;SDS011;6131;56.420;15.548;2023-05-10T10:34:26;3.63;;;1.97;;
12135;SDS011;6131;56.420;15.548;2023-05-10T10:36:53;3.77;;;1.67;;
12135;SDS011;6131;56.420;15.548;2023-05-10T10:39:19;3.73;;;1.67;;
12135;SDS011;6131;56.420;15.548;2023-05-10T10:41:50;3.43;;;1.50;;
12135;SDS011;6131;56.420;15.548;2023-05-10T10:47:07;5.28;;;1.60;;
12135;SDS011;6131;56.420;15.548;2023-05-10T10:49:38;5.35;;;1.80;;
12135;SDS011;6131;56.420;15.548;2023-05-10T10:55:17;6.20;;;2.00;;
12135;SDS011;6131;56.420;15.548;2023-05-10T10:57:47;2.87;;;1.80;;
12135;SDS011;6131;56.420;15.548;2023-05-10T11:00:33;11.00;;;2.00;;
12135;SDS011;6131;56.420;15.548;2023-05-10T11:03:06;2.35;;;1.55;;
12135;SDS011;6131;56.420;15.548;2023-05-10T11:08:00;5.57;;;1.70;;
12135;SDS011;6131;56.420;15.548;2023-05-10T11:10:26;3.40;;;1.57;;
12135;SDS011;6131;56.420;15.548;2023-05-10T11:13:03;4.82;;;1.75;;
12135;SDS011;6131;56.420;15.548;2023-05-10T11:15:40;6.25;;;1.80;;
12135;SDS011;6131;56.420;15.548;2023-05-10T11:18:20;2.88;;;1.90;;
12135;SDS011;6131;56.420;15.548;2023-05-10T11:20:50;9.55;;;1.73;;
12135;SDS011;6131;56.420;15.548;2023-05-10T11:23:16;3.03;;;1.88;;
12135;SDS011;6131;56.420;15.548;2023-05-10T11:25:43;2.90;;;1.75;;
12135;SDS011;6131;56.420;15.548;2023-05-10T11:28:09;4.70;;;1.90;;
12135;SDS011;6131;56.420;15.548;2023-05-10T11:30:37;6.63;;;1.75;;
12135;SDS011;6131;56.420;15.548;2023-05-10T11:33:04;2.55;;;1.80;;
12135;SDS011;6131;56.420;15.548;2023-05-10T11:35:30;3.40;;;2.00;;
12135;SDS011;6131;56.420;15.548;2023-05-10T11:37:56;2.78;;;1.38;;
12135;SDS011;6131;56.420;15.548;2023-05-10T11:40:22;4.05;;;1.83;;
12135;SDS011;6131;56.420;15.548;2023-05-10T11:42:52;2.10;;;1.70;;
12135;SDS011;6131;56.420;15.548;2023-05-10T11:45:23;6.22;;;1.70;;
12135;SDS011;6131;56.420;15.548;2023-05-10T11:47:49;4.43;;;1.75;;
12135;SDS011;6131;56.420;15.548;2023-05-10T11:50:15;2.75;;;1.90;;
12135;SDS011;6131;56.420;15.548;2023-05-10T11:52:41;2.10;;;1.90;;
12135;SDS011;6131;56.420;15.548;2023-05-10T11:55:07;2.53;;;1.70;;
12135;SDS011;6131;56.420;15.548;2023-05-10T11:57:33;2.88;;;1.80;;
12135;SDS011;6131;56.420;15.548;2023-05-10T11:59:59;3.92;;;1.70;;
12135;SDS011;6131;56.420;15.548;2023-05-10T12:02:25;4.25;;;1.73;;
12135;SDS011;6131;56.420;15.548;2023-05-10T12:04:51;2.83;;;1.70;;
12135;SDS011;6131;56.420;15.548;2023-05-10T12:07:17;4.57;;;2.08;;
12135;SDS011;6131;56.420;15.548;2023-05-10T12:09:43;4.05;;;1.92;;
12135;SDS011;6131;56.420;15.548;2023-05-10T12:12:10;3.22;;;1.75;;
12135;SDS011;6131;56.420;15.548;2023-05-10T12:14:36;4.53;;;1.75;;
12135;SDS011;6131;56.420;15.548;2023-05-10T12:17:02;2.65;;;1.60;;
12135;SDS011;6131;56.420;15.548;2023-05-10T12:19:29;2.38;;;1.70;;
12135;SDS011;6131;56.420;15.548;2023-05-10T12:22:04;5.93;;;2.10;;
12135;SDS011;6131;56.420;15.548;2023-05-10T12:24:30;5.53;;;2.30;;
12135;SDS011;6131;56.420;15.548;2023-05-10T12:26:56;4.10;;;1.90;;
12135;SDS011;6131;56.420;15.548;2023-05-10T12:29:22;5.75;;;2.30;;
12135;SDS011;6131;56.420;15.548;2023-05-10T12:31:51;2.90;;;1.90;;
12135;SDS011;6131;56.420;15.548;2023-05-10T12:34:30;3.67;;;1.90;;
12135;SDS011;6131;56.420;15.548;2023-05-10T12:36:56;5.25;;;2.10;;
12135;SDS011;6131;56.420;15.548;2023-05-10T12:39:23;2.25;;;1.52;;
12135;SDS011;6131;56.420;15.548;2023-05-10T12:41:50;2.92;;;2.03;;
12135;SDS011;6131;56.420;15.548;2023-05-10T12:44:16;3.08;;;2.22;;
12135;SDS011;6131;56.420;15.548;2023-05-10T12:46:42;4.20;;;1.88;;
12135;SDS011;6131;56.420;15.548;2023-05-10T12:49:08;3.35;;;2.08;;
12135;SDS011;6131;56.420;15.548;2023-05-10T12:51:34;4.07;;;2.47;;
12135;SDS011;6131;56.420;15.548;2023-05-10T12:54:01;3.85;;;2.30;;
12135;SDS011;6131;56.420;15.548;2023-05-10T12:56:28;3.13;;;2.20;;
12135;SDS011;6131;56.420;15.548;2023-05-10T12:58:53;5.43;;;2.70;;
12135;SDS011;6131;56.420;15.548;2023-05-10T13:01:19;3.97;;;2.20;;
12135;SDS011;6131;56.420;15.548;2023-05-10T13:03:46;4.95;;;2.35;;
12135;SDS011;6131;56.420;15.548;2023-05-10T13:06:12;5.10;;;2.60;;
12135;SDS011;6131;56.420;15.548;2023-05-10T13:08:39;2.90;;;2.50;;
12135;SDS011;6131;56.420;15.548;2023-05-10T13:11:05;4.60;;;2.88;;
12135;SDS011;6131;56.420;15.548;2023-05-10T13:13:31;4.63;;;2.17;;
12135;SDS011;6131;56.420;15.548;2023-05-10T13:15:57;3.35;;;2.42;;
12135;SDS011;6131;56.420;15.548;2023-05-10T13:18:23;4.00;;;2.15;;
12135;SDS011;6131;56.420;15.548;2023-05-10T13:20:51;4.93;;;2.28;;
12135;SDS011;6131;56.420;15.548;2023-05-10T13:23:17;3.58;;;2.65;;
12135;SDS011;6131;56.420;15.548;2023-05-10T13:25:43;6.22;;;2.28;;
12135;SDS011;6131;56.420;15.548;2023-05-10T13:28:09;8.00;;;2.45;;
12135;SDS011;6131;56.420;15.548;2023-05-10T13:30:35;4.72;;;2.60;;
12135;SDS011;6131;56.420;15.548;2023-05-10T13:33:01;4.15;;;2.00;;
12135;SDS011;6131;56.420;15.548;2023-05-10T13:35:27;3.80;;;2.20;;
12135;SDS011;6131;56.420;15.548;2023-05-10T13:37:53;5.55;;;2.58;;
12135;SDS011;6131;56.420;15.548;2023-05-10T13:40:21;4.50;;;2.28;;
12135;SDS011;6131;56.420;15.548;2023-05-10T13:42:47;4.55;;;2.35;;
12135;SDS011;6131;56.420;15.548;2023-05-10T13:45:13;2.88;;;2.22;;
12135;SDS011;6131;56.420;15.548;2023-05-10T13:47:39;6.20;;;2.60;;
12135;SDS011;6131;56.420;15.548;2023-05-10T13:50:07;3.78;;;2.33;;
12135;SDS011;6131;56.420;15.548;2023-05-10T13:52:33;2.97;;;2.33;;
12135;SDS011;6131;56.420;15.548;2023-05-10T13:54:59;3.20;;;2.38;;
12135;SDS011;6131;56.420;15.548;2023-05-10T13:57:25;6.15;;;2.53;;
12135;SDS011;6131;56.420;15.548;2023-05-10T13:59:51;3.13;;;2.47;;
12135;SDS011;6131;56.420;15.548;2023-05-10T14:02:18;4.50;;;2.72;;
12135;SDS011;6131;56.420;15.548;2023-05-10T14:04:44;3.58;;;2.30;;
12135;SDS011;6131;56.420;15.548;2023-05-10T14:07:10;3.42;;;2.08;;
12135;SDS011;6131;56.420;15.548;2023-05-10T14:09:36;5.63;;;2.30;;
12135;SDS011;6131;56.420;15.548;2023-05-10T14:12:02;4.95;;;2.25;;
12135;SDS011;6131;56.420;15.548;2023-05-10T14:14:28;5.35;;;2.03;;
12135;SDS011;6131;56.420;15.548;2023-05-10T14:16:54;3.70;;;2.30;;
12135;SDS011;6131;56.420;15.548;2023-05-10T14:19:20;3.08;;;2.25;;
12135;SDS011;6131;56.420;15.548;2023-05-10T14:21:46;7.90;;;2.00;;
12135;SDS011;6131;56.420;15.548;2023-05-10T14:24:12;4.03;;;2.10;;
12135;SDS011;6131;56.420;15.548;2023-05-10T14:26:38;5.03;;;2.38;;
12135;SDS011;6131;56.420;15.548;2023-05-10T14:29:04;4.18;;;2.15;;
12135;SDS011;6131;56.420;15.548;2023-05-10T14:31:31;4.45;;;1.98;;
12135;SDS011;6131;56.420;15.548;2023-05-10T14:33:57;4.40;;;2.07;;
12135;SDS011;6131;56.420;15.548;2023-05-10T14:36:24;4.95;;;1.95;;
12135;SDS011;6131;56.420;15.548;2023-05-10T14:38:50;3.97;;;2.20;;
12135;SDS011;6131;56.420;15.548;2023-05-10T14:41:17;3.37;;;2.10;;
12135;SDS011;6131;56.420;15.548;2023-05-10T14:43:43;6.90;;;2.40;;
12135;SDS011;6131;56.420;15.548;2023-05-10T14:46:09;5.53;;;1.97;;
12135;SDS011;6131;56.420;15.548;2023-05-10T14:48:35;3.40;;;2.07;;
12135;SDS011;6131;56.420;15.548;2023-05-10T14:51:01;3.40;;;2.07;;
12135;SDS011;6131;56.420;15.548;2023-05-10T14:53:28;2.87;;;1.77;;
12135;SDS011;6131;56.420;15.548;2023-05-10T14:55:54;3.97;;;1.90;;
12135;SDS011;6131;56.420;15.548;2023-05-10T14:58:20;3.37;;;1.97;;
12135;SDS011;6131;56.420;15.548;2023-05-10T15:00:46;2.63;;;1.80;;
12135;SDS011;6131;56.420;15.548;2023-05-10T15:03:12;3.00;;;2.10;;
12135;SDS011;6131;56.420;15.548;2023-05-10T15:05:38;4.10;;;1.90;;
12135;SDS011;6131;56.420;15.548;2023-05-10T15:08:04;3.33;;;1.80;;
12135;SDS011;6131;56.420;15.548;2023-05-10T15:10:30;4.70;;;2.00;;
12135;SDS011;6131;56.420;15.548;2023-05-10T15:12:57;2.63;;;2.00;;
12135;SDS011;6131;56.420;15.548;2023-05-10T15:15:23;3.73;;;1.97;;